Time;durP1;ratioP1;P1;durP2;ratioP2;P2;SDS_P1;SDS_P2;PMS_P1;PMS_P2;Temp;Humidity;BMP_temperature;BMP_pressure;BME280_temperature;BME280_humidity;BME280_pressure;Samples;Min_cycle;Max_cycle;Signal;HPM_P1;HPM_P2
2022/12/15 00:40:12;;;;;;;8.77;3.57;;;;;;;2.04;93.42;94046.88;4352633;32;20295;-58
2022/12/15 00:42:40;;;;;;;3.50;3.30;;;;;;;1.69;94.66;94055.69;4356101;32;20345;-54
2022/12/15 00:45:15;;;;;;;5.27;4.13;;;;;;;1.99;94.52;94049.53;4371824;32;20277;-54
2022/12/15 00:47:41;;;;;;;3.57;3.37;;;;;;;2.22;93.25;94053.31;4346853;32;20288;-54
2022/12/15 01:20:33;;;;;;;2.33;2.23;;;;;;;1.44;95.10;94081.94;4364090;32;20335;-55
2022/12/15 01:22:59;;;;;;;2.25;2.15;;;;;;;1.47;94.91;94078.78;4375192;32;20296;-56
2022/12/15 01:25:27;;;;;;;2.33;2.23;;;;;;;1.20;94.94;94081.75;4364288;32;20203;-56
2022/12/15 01:27:57;;;;;;;2.83;2.72;;;;;;;1.23;95.13;94091.66;4382489;32;20207;-55
2022/12/15 01:30:31;;;;;;;4.00;3.80;;;;;;;1.37;95.44;94079.59;4372330;32;20264;-53
2022/12/15 01:32:57;;;;;;;4.60;4.22;;;;;;;1.46;95.62;94086.87;4337898;32;20292;-57
2022/12/15 01:35:26;;;;;;;5.53;4.10;;;;;;;1.47;95.20;94089.22;4357221;32;20189;-63
2022/12/15 01:37:53;;;;;;;3.20;3.07;;;;;;;1.60;94.93;94090.50;4372957;32;20310;-57
2022/12/15 01:43:26;;;;;;;3.67;3.37;;;;;;;1.70;95.06;94095.66;4367017;32;20339;-56
2022/12/15 01:45:59;;;;;;;2.63;2.53;;;;;;;1.70;95.09;94106.91;4351968;32;20273;-54
2022/12/15 01:48:42;;;;;;;3.00;2.77;;;;;;;1.60;94.62;94098.34;4369517;32;20277;-57
2022/12/15 01:51:14;;;;;;;4.37;4.07;;;;;;;1.50;93.83;94099.16;4363092;32;20272;-56
2022/12/15 01:53:52;;;;;;;3.13;3.03;;;;;;;1.41;93.83;94099.97;4363922;32;20291;-57
2022/12/15 01:56:24;;;;;;;2.90;2.80;;;;;;;1.32;94.40;94104.94;4365179;32;20280;-55
2022/12/15 01:59:00;;;;;;;3.30;3.10;;;;;;;1.45;94.55;94103.63;4344726;32;20277;-55
2022/12/15 02:01:33;;;;;;;2.37;2.27;;;;;;;1.42;94.20;94106.75;4380701;32;20256;-54
2022/12/15 02:03:59;;;;;;;3.70;3.50;;;;;;;1.52;94.07;94101.50;4357013;32;20404;-57
2022/12/15 02:06:31;;;;;;;3.57;3.37;;;;;;;1.64;94.44;94092.31;4336014;32;20280;-58
2022/12/15 02:08:59;;;;;;;3.53;3.37;;;;;;;1.56;93.97;94098.09;4361881;32;20360;-56
2022/12/15 02:11:34;;;;;;;2.80;2.60;;;;;;;1.44;94.75;94099.44;4364249;32;20277;-56
2022/12/15 02:14:18;;;;;;;4.70;4.37;;;;;;;1.52;95.14;94101.50;4388900;32;20338;-56
2022/12/15 02:17:27;;;;;;;3.07;2.97;;;;;;;1.58;94.03;94101.22;4346908;32;20273;-56
2022/12/15 02:20:29;;;;;;;3.73;2.93;;;;;;;1.60;94.04;94100.94;4355571;32;20303;-57
2022/12/15 02:23:41;;;;;;;3.07;2.97;;;;;;;1.49;94.49;94104.63;4359070;32;20299;-56
2022/12/15 02:26:45;;;;;;;3.73;3.60;;;;;;;1.63;93.93;94123.94;4354830;32;20288;-57
2022/12/15 02:29:52;;;;;;;2.53;2.33;;;;;;;1.50;93.52;94129.72;4328133;33;20361;-55
2022/12/15 02:32:28;;;;;;;3.03;2.83;;;;;;;1.61;93.17;94136.50;4322258;32;20313;-57
2022/12/15 02:35:10;;;;;;;4.80;4.28;;;;;;;1.52;92.60;94140.69;4282029;33;20286;-53
2022/12/15 02:37:38;;;;;;;5.83;3.60;;;;;;;1.69;92.91;94141.94;4321799;32;20188;-56
2022/12/15 02:40:17;;;;;;;2.73;2.53;;;;;;;1.46;93.86;94149.56;4317281;32;20279;-55
2022/12/15 02:42:48;;;;;;;5.30;3.77;;;;;;;1.48;93.89;94150.09;4336595;32;20373;-56
2022/12/15 02:45:22;;;;;;;4.17;3.97;;;;;;;1.48;93.76;94152.72;4305860;33;20361;-57
2022/12/15 02:48:04;;;;;;;5.53;3.97;;;;;;;1.55;93.84;94156.63;4316727;32;20270;-56
2022/12/15 02:50:47;;;;;;;3.30;3.20;;;;;;;1.38;94.93;94164.75;4294104;33;20326;-56
2022/12/15 02:53:47;;;;;;;3.90;3.70;;;;;;;1.23;95.35;94162.19;4336973;32;20365;-57
2022/12/15 02:56:44;;;;;;;3.50;3.20;;;;;;;1.26;95.19;94161.63;4322629;32;20405;-55
2022/12/15 02:59:24;;;;;;;3.20;3.10;;;;;;;1.30;94.62;94154.06;4371072;32;20380;-56
2022/12/15 03:01:58;;;;;;;3.00;2.80;;;;;;;1.38;94.02;94156.94;4383375;32;20343;-56
2022/12/15 03:04:26;;;;;;;3.40;2.47;;;;;;;1.35;93.52;94175.75;4375236;32;20283;-55
2022/12/15 03:06:55;;;;;;;3.60;3.40;;;;;;;1.18;93.86;94171.84;4392562;32;20226;-56
2022/12/15 03:09:21;;;;;;;2.85;2.75;;;;;;;1.40;93.97;94166.34;4357332;32;20289;-57
2022/12/15 03:11:46;;;;;;;3.63;3.43;;;;;;;1.43;93.81;94163.19;4375245;32;20287;-56
2022/12/15 03:14:12;;;;;;;4.03;3.67;;;;;;;1.37;92.76;94173.66;4364291;32;20259;-57
2022/12/15 03:16:39;;;;;;;3.50;3.17;;;;;;;1.18;92.56;94166.62;4371905;32;20203;-57
2022/12/15 03:19:05;;;;;;;3.08;2.85;;;;;;;1.09;92.65;94171.59;4384449;32;20181;-56
2022/12/15 03:21:31;;;;;;;3.58;2.87;;;;;;;1.00;93.61;94167.94;4368987;32;20260;-55
2022/12/15 03:23:58;;;;;;;3.13;2.97;;;;;;;0.84;94.02;94169.75;4341545;32;20189;-57
2022/12/15 03:26:25;;;;;;;3.00;2.80;;;;;;;0.79;94.21;94177.59;4373806;32;20188;-57
2022/12/15 03:28:52;;;;;;;2.15;2.05;;;;;;;0.84;94.26;94174.97;4366376;32;20235;-54
2022/12/15 03:31:18;;;;;;;4.35;3.25;;;;;;;0.78;94.63;94180.47;4364378;32;20205;-55
2022/12/15 03:33:45;;;;;;;2.75;2.55;;;;;;;0.86;94.77;94178.09;4377451;32;20258;-57
2022/12/15 03:36:12;;;;;;;2.28;2.17;;;;;;;0.88;94.41;94177.84;4325796;32;20351;-54
2022/12/15 03:38:45;;;;;;;2.50;1.58;;;;;;;1.00;93.60;94183.63;4352702;32;20227;-57
2022/12/15 03:41:12;;;;;;;2.83;2.72;;;;;;;0.72;93.90;94197.16;4366901;32;20264;-56
2022/12/15 03:43:37;;;;;;;2.33;2.22;;;;;;;0.78;94.41;94190.91;4360072;32;20181;-57
2022/12/15 03:46:05;;;;;;;2.63;2.53;;;;;;;0.54;94.85;94194.00;4375938;32;20210;-56
2022/12/15 03:48:30;;;;;;;2.58;2.45;;;;;;;0.67;94.70;94196.09;4366977;32;20326;-56
2022/12/15 03:50:55;;;;;;;1.30;1.30;;;;;;;0.71;93.91;94192.97;4363011;32;20193;-55
2022/12/15 03:53:21;;;;;;;3.37;3.23;;;;;;;0.64;93.95;94196.62;4352275;32;20196;-57
2022/12/15 03:55:47;;;;;;;3.47;3.37;;;;;;;0.64;94.00;94196.62;4365316;32;20185;-55
2022/12/15 03:58:14;;;;;;;3.50;3.30;;;;;;;0.59;93.99;94201.84;4379454;32;20261;-55
2022/12/15 04:00:41;;;;;;;2.55;2.40;;;;;;;0.54;94.61;94201.84;4372445;32;20207;-55
2022/12/15 04:03:09;;;;;;;4.70;4.40;;;;;;;0.61;94.85;94215.44;4362163;32;20189;-54
2022/12/15 04:05:37;;;;;;;3.10;3.00;;;;;;;0.58;95.56;94222.97;4364542;32;20202;-56
2022/12/15 04:08:04;;;;;;;2.65;2.55;;;;;;;0.73;94.59;94217.00;4356824;32;20220;-56
2022/12/15 04:10:32;;;;;;;4.22;3.92;;;;;;;0.66;94.29;94225.84;4353029;32;20193;-57
2022/12/15 04:13:05;;;;;;;4.32;4.12;;;;;;;0.69;94.63;94220.12;4369756;32;20188;-55
2022/12/15 04:15:33;;;;;;;4.90;4.15;;;;;;;0.83;94.24;94225.59;4359911;32;20235;-56
2022/12/15 04:18:02;;;;;;;3.12;2.92;;;;;;;0.75;93.77;94220.91;4362261;32;20181;-55
2022/12/15 04:20:28;;;;;;;2.55;2.45;;;;;;;0.63;93.15;94223.75;4365926;32;20185;-54
2022/12/15 04:22:53;;;;;;;3.13;3.00;;;;;;;0.73;93.22;94225.59;4354873;32;20234;-56
2022/12/15 05:32:45;;;;;;;4.90;4.60;;;;;;;0.56;92.19;94272.81;4325173;32;20208;-55
2022/12/15 05:35:12;;;;;;;5.05;3.50;;;;;;;0.52;92.75;94290.00;4359284;32;20192;-55
2022/12/15 05:37:38;;;;;;;3.15;2.95;;;;;;;0.86;91.98;94282.50;4370285;32;20192;-55
2022/12/15 05:40:05;;;;;;;4.87;4.57;;;;;;;0.73;92.30;94274.41;4368140;32;20234;-54
2022/12/15 05:42:32;;;;;;;3.67;3.47;;;;;;;0.64;91.81;94271.50;4365036;32;20240;-54
2022/12/15 05:44:59;;;;;;;4.53;4.25;;;;;;;0.82;91.67;94273.66;4382863;32;20233;-57
2022/12/15 05:47:25;;;;;;;3.37;3.15;;;;;;;0.77;91.03;94271.03;4381076;32;20263;-57
2022/12/15 05:49:53;;;;;;;4.10;3.90;;;;;;;0.54;92.06;94280.09;4363428;32;20230;-57
2022/12/15 05:52:20;;;;;;;2.58;2.47;;;;;;;0.62;91.77;94279.59;4358308;32;20184;-55
2022/12/15 05:54:45;;;;;;;3.65;3.50;;;;;;;0.77;90.97;94275.47;4337655;32;20189;-52
2022/12/15 05:57:12;;;;;;;5.10;4.70;;;;;;;0.60;90.65;94279.09;4357949;32;20215;-57
2022/12/15 05:59:40;;;;;;;3.78;3.45;;;;;;;0.45;91.38;94280.84;4367522;32;20201;-53
2022/12/15 06:02:06;;;;;;;3.95;3.70;;;;;;;0.60;91.50;94286.91;4352868;32;20291;-54
2022/12/15 06:04:32;;;;;;;4.10;3.67;;;;;;;0.51;92.20;94291.03;4361522;32;20248;-55
2022/12/15 06:06:59;;;;;;;3.30;3.17;;;;;;;0.58;92.19;94301.25;4366853;32;20177;-52
2022/12/15 06:09:26;;;;;;;3.60;3.35;;;;;;;0.64;90.73;94311.44;4354469;32;20181;-52
2022/12/15 06:11:51;;;;;;;5.35;4.85;;;;;;;0.63;90.93;94317.69;4343237;32;20242;-53
2022/12/15 06:14:18;;;;;;;3.07;2.87;;;;;;;0.65;91.32;94322.66;4346104;32;20268;-55
2022/12/15 06:16:48;;;;;;;4.03;3.62;;;;;;;0.86;90.61;94318.28;4361554;32;20308;-51
2022/12/15 06:19:14;;;;;;;3.42;3.22;;;;;;;0.95;90.31;94316.75;4361339;32;20360;-54
2022/12/15 06:21:41;;;;;;;3.35;3.15;;;;;;;0.78;90.31;94326.62;4352265;32;20262;-54
2022/12/15 06:24:11;;;;;;;3.85;3.65;;;;;;;0.58;91.50;94322.91;4359868;32;20181;-55
2022/12/15 06:26:47;;;;;;;4.68;4.43;;;;;;;0.92;91.15;94322.47;4366256;32;20189;-55
2022/12/15 06:29:14;;;;;;;6.00;5.57;;;;;;;0.95;90.51;94332.41;4324498;32;20245;-55
2022/12/15 06:31:41;;;;;;;3.53;3.43;;;;;;;0.86;89.94;94344.38;4362571;32;21561;-55
2022/12/15 06:34:13;;;;;;;4.03;3.78;;;;;;;0.79;91.11;94339.41;4330590;32;20285;-55
2022/12/15 06:36:43;;;;;;;4.20;3.97;;;;;;;0.83;91.08;94343.06;4334547;32;20193;-55
2022/12/15 06:39:12;;;;;;;4.22;3.87;;;;;;;0.86;91.04;94344.38;4350314;32;20370;-55
2022/12/15 06:41:40;;;;;;;4.57;4.30;;;;;;;0.85;91.00;94334.97;4369765;32;20177;-52
2022/12/15 06:44:18;;;;;;;5.25;4.85;;;;;;;0.90;90.87;94340.22;4372473;32;20335;-53
2022/12/15 06:46:47;;;;;;;5.25;4.97;;;;;;;0.94;90.66;94346.50;4333944;32;20323;-54
2022/12/15 06:49:14;;;;;;;6.50;6.00;;;;;;;0.88;90.81;94340.47;4322219;32;25034;-53
2022/12/15 06:51:42;;;;;;;4.68;4.37;;;;;;;0.75;90.48;94348.00;4362128;32;20277;-54
2022/12/15 06:54:10;;;;;;;4.05;3.85;;;;;;;0.74;91.00;94362.88;4375773;32;20256;-54
2022/12/15 06:56:36;;;;;;;5.25;4.90;;;;;;;0.80;90.92;94371.53;4363482;32;20198;-55
2022/12/15 06:59:04;;;;;;;5.13;4.70;;;;;;;0.67;91.05;94368.31;4350719;32;20189;-53
2022/12/15 07:01:30;;;;;;;3.42;3.28;;;;;;;0.57;90.98;94368.28;4372022;32;20185;-52
2022/12/15 07:03:58;;;;;;;3.75;3.58;;;;;;;0.44;91.32;94373.16;4391772;32;20192;-51
2022/12/15 07:06:44;;;;;;;3.40;3.30;;;;;;;0.29;92.32;94371.28;4366416;32;20185;-54
2022/12/15 07:09:15;;;;;;;4.20;3.80;;;;;;;0.33;92.96;94372.34;4369694;32;20266;-53
2022/12/15 07:11:42;;;;;;;5.20;5.00;;;;;;;0.12;93.39;94370.66;4372023;32;20278;-53
2022/12/15 07:14:19;;;;;;;5.65;5.22;;;;;;;0.23;93.31;94367.84;4352086;32;20184;-51
2022/12/15 07:16:47;;;;;;;4.00;3.70;;;;;;;-0.03;93.13;94372.12;4354528;32;20201;-54
2022/12/15 07:19:14;;;;;;;3.37;3.25;;;;;;;0.00;93.69;94363.78;4328171;32;20190;-55
2022/12/15 07:21:42;;;;;;;4.45;4.25;;;;;;;0.20;93.25;94365.75;4371162;32;20188;-54
2022/12/15 07:24:11;;;;;;;4.45;4.22;;;;;;;0.20;93.09;94363.16;4369880;32;20263;-54
2022/12/15 07:26:39;;;;;;;4.35;4.12;;;;;;;0.45;92.71;94365.09;4347968;32;20185;-53
2022/12/15 07:29:04;;;;;;;5.35;5.03;;;;;;;0.53;92.20;94364.62;4369987;32;20195;-52
2022/12/15 07:31:31;;;;;;;5.00;4.50;;;;;;;0.58;91.67;94380.31;4331675;32;20209;-54
2022/12/15 07:34:01;;;;;;;4.62;4.35;;;;;;;0.47;91.33;94375.28;4348594;32;20261;-54
2022/12/15 07:36:27;;;;;;;3.90;2.53;;;;;;;1.14;97.25;94379.72;4321625;32;20209;-53
2022/12/15 07:39:01;;;;;;;5.70;5.10;;;;;;;2.08;100.00;94375.87;4366551;32;20322;-51
2022/12/15 07:41:28;;;;;;;4.33;4.13;;;;;;;2.27;96.78;94369.03;4370673;32;20276;-54
2022/12/15 07:44:01;;;;;;;4.23;3.97;;;;;;;2.79;94.39;94367.84;4367839;32;20335;-53
2022/12/15 07:46:30;;;;;;;8.23;7.57;;;;;;;2.58;88.27;94359.28;4339344;32;20280;-53
2022/12/15 07:48:57;;;;;;;4.37;3.97;;;;;;;3.17;91.61;94351.41;4354961;32;20315;-52
2022/12/15 07:51:26;;;;;;;4.77;4.57;;;;;;;3.12;88.29;94343.56;4365632;32;20278;-53
2022/12/15 07:53:52;;;;;;;5.70;5.30;;;;;;;3.52;92.39;94347.81;4348931;32;20289;-53
2022/12/15 07:56:19;;;;;;;4.13;3.90;;;;;;;4.13;91.01;94347.31;4341274;32;20288;-52
2022/12/15 07:58:46;;;;;;;6.27;5.77;;;;;;;4.32;88.86;94347.41;4353208;32;20189;-51
2022/12/15 08:01:14;;;;;;;7.87;7.33;;;;;;;4.20;83.66;94352.22;4357626;32;20346;-52
2022/12/15 08:03:41;;;;;;;5.87;5.37;;;;;;;3.71;81.09;94351.34;4338733;32;20325;-54
2022/12/15 08:06:11;;;;;;;6.47;6.00;;;;;;;4.08;85.11;94356.00;4315347;32;20385;-52
2022/12/15 08:08:40;;;;;;;6.40;6.00;;;;;;;4.60;82.72;94343.16;4374498;32;20335;-53
2022/12/15 08:11:09;;;;;;;4.57;4.17;;;;;;;4.82;83.34;94344.19;4338796;32;20281;-52
2022/12/15 08:13:38;;;;;;;6.73;6.10;;;;;;;4.85;78.71;94356.00;4353032;32;20284;-51
2022/12/15 08:16:11;;;;;;;6.20;4.93;;;;;;;4.77;79.08;94367.94;4313466;32;20289;-54
2022/12/15 08:18:38;;;;;;;6.07;5.67;;;;;;;4.45;82.09;94386.88;4347211;32;20301;-51
2022/12/15 08:21:16;;;;;;;4.63;4.37;;;;;;;4.60;76.99;94385.16;4360288;32;20323;-54
2022/12/15 08:23:44;;;;;;;14.57;8.30;;;;;;;5.05;79.61;94378.63;4385282;32;20380;-50
2022/12/15 08:26:19;;;;;;;5.57;5.17;;;;;;;4.50;76.14;94380.81;4349136;32;20425;-51
2022/12/15 08:28:46;;;;;;;6.93;5.87;;;;;;;4.10;76.87;94395.88;4362266;32;20276;-55
2022/12/15 08:31:16;;;;;;;5.83;5.43;;;;;;;3.42;76.69;94401.06;4348575;32;20397;-55
2022/12/15 08:33:48;;;;;;;6.30;5.83;;;;;;;2.93;78.76;94418.56;4367544;32;20331;-55
2022/12/15 08:36:20;;;;;;;5.40;4.90;;;;;;;2.39;80.95;94422.66;4353536;32;22082;-54
2022/12/15 08:38:47;;;;;;;5.23;4.93;;;;;;;2.13;82.80;94428.16;4355219;32;20312;-56
2022/12/15 08:41:28;;;;;;;9.07;5.67;;;;;;;2.22;82.38;94429.22;4348320;32;20277;-56
2022/12/15 08:43:56;;;;;;;4.57;4.37;;;;;;;2.15;83.59;94433.91;4346553;32;20277;-60
2022/12/15 08:46:35;;;;;;;6.17;5.57;;;;;;;1.99;83.32;94431.31;4350321;32;20281;-53
2022/12/15 08:49:03;;;;;;;5.27;4.67;;;;;;;1.64;84.98;94433.91;4353459;32;20319;-56
2022/12/15 08:51:31;;;;;;;5.83;5.47;;;;;;;1.94;85.32;94431.31;4337122;32;20349;-56
2022/12/15 08:54:02;;;;;;;5.30;5.00;;;;;;;1.61;86.35;94439.66;4364458;32;20280;-54
2022/12/15 08:56:34;;;;;;;4.80;4.60;;;;;;;2.03;85.37;94440.22;4355486;32;20274;-54
2022/12/15 08:59:01;;;;;;;5.63;5.23;;;;;;;2.14;85.31;94442.81;4342138;32;20320;-54
2022/12/15 09:01:30;;;;;;;4.63;4.30;;;;;;;2.18;84.08;94447.25;4357848;32;20287;-52
2022/12/15 09:03:57;;;;;;;6.70;6.07;;;;;;;2.31;83.26;94444.09;4291276;32;20286;-56
2022/12/15 09:06:48;;;;;;;4.73;4.33;;;;;;;2.03;83.62;94437.59;4292971;32;20301;-57
2022/12/15 09:09:18;;;;;;;6.37;5.87;;;;;;;2.23;84.81;94428.97;4295163;32;20337;-55
2022/12/15 09:11:44;;;;;;;4.43;4.23;;;;;;;2.59;84.74;94434.91;4325545;32;20355;-55
2022/12/15 09:14:10;;;;;;;6.70;4.63;;;;;;;2.90;83.16;94442.72;4334809;32;20287;-52
2022/12/15 09:16:37;;;;;;;5.10;4.80;;;;;;;3.98;82.37;94440.03;4340681;32;20283;-53
2022/12/15 09:19:03;;;;;;;3.97;3.73;;;;;;;4.18;77.52;94438.31;4371149;32;20367;-55
2022/12/15 09:21:33;;;;;;;5.77;5.37;;;;;;;4.92;78.08;94426.59;4351429;32;20327;-57
2022/12/15 09:24:01;;;;;;;4.50;4.30;;;;;;;5.35;73.05;94414.28;4348739;32;20331;-54
2022/12/15 09:26:30;;;;;;;6.17;4.70;;;;;;;4.69;71.99;94412.41;4333186;32;20277;-54
2022/12/15 09:28:56;;;;;;;5.17;4.87;;;;;;;4.78;72.89;94397.59;4341365;32;20287;-55
2022/12/15 09:31:27;;;;;;;6.63;5.37;;;;;;;4.29;73.81;94403.06;4359283;32;20296;-56
2022/12/15 09:33:56;;;;;;;7.20;6.57;;;;;;;4.05;75.45;94406.41;4345401;32;20277;-55
2022/12/15 09:36:23;;;;;;;5.27;4.87;;;;;;;3.78;77.34;94398.22;4357106;32;20285;-56
2022/12/15 09:38:57;;;;;;;4.37;4.00;;;;;;;3.88;77.26;94395.53;4365152;32;20306;-55
2022/12/15 09:41:34;;;;;;;5.73;5.33;;;;;;;3.33;78.47;94410.53;4343416;32;20279;-57
2022/12/15 09:44:10;;;;;;;5.63;5.13;;;;;;;3.20;79.46;94399.87;4341903;32;20307;-56
2022/12/15 09:47:14;;;;;;;5.33;5.03;;;;;;;3.02;80.77;94398.66;4377031;32;20276;-55
2022/12/15 09:50:03;;;;;;;5.70;5.23;;;;;;;3.00;80.91;94392.91;4352035;32;20302;-57
2022/12/15 09:52:41;;;;;;;6.80;5.77;;;;;;;3.02;81.03;94396.03;4366118;32;20297;-56
2022/12/15 09:55:19;;;;;;;6.43;6.03;;;;;;;2.87;80.59;94403.94;4340804;32;20355;-55
2022/12/15 09:57:45;;;;;;;8.63;6.43;;;;;;;2.50;81.27;94399.84;4334063;32;20350;-56
2022/12/15 10:00:36;;;;;;;6.47;5.97;;;;;;;2.30;83.02;94400.66;4376057;32;20427;-56
2022/12/15 10:03:23;;;;;;;7.57;6.97;;;;;;;2.52;83.24;94392.53;4353754;32;20513;-55
2022/12/15 10:06:07;;;;;;;6.80;6.27;;;;;;;2.56;82.95;94398.78;4330810;32;20276;-55
2022/12/15 10:08:38;;;;;;;6.90;6.50;;;;;;;3.02;81.78;94378.47;4366949;32;20277;-55
2022/12/15 10:11:18;;;;;;;5.60;5.30;;;;;;;3.02;81.21;94375.84;4365416;32;20272;-56
2022/12/15 10:14:33;;;;;;;5.43;5.10;;;;;;;2.76;81.96;94372.56;4358245;32;20288;-53
2022/12/15 10:17:36;;;;;;;7.40;6.77;;;;;;;2.59;83.31;94361.63;4300659;32;20286;-54
2022/12/15 10:20:23;;;;;;;7.10;6.30;;;;;;;2.33;83.54;94358.28;4366892;32;20275;-55
2022/12/15 10:22:50;;;;;;;6.40;5.70;;;;;;;2.45;84.22;94354.59;4360897;32;20296;-56
2022/12/15 10:25:31;;;;;;;5.77;5.47;;;;;;;2.62;84.11;94361.09;4361140;32;20269;-54
2022/12/15 10:28:19;;;;;;;8.10;5.10;;;;;;;2.75;82.93;94359.72;4337059;32;20277;-55
2022/12/15 10:31:07;;;;;;;5.97;5.57;;;;;;;2.82;82.75;94364.69;4369232;32;20372;-52
2022/12/15 10:33:38;;;;;;;8.43;7.73;;;;;;;3.08;82.41;94366.94;4366548;32;20277;-58
2022/12/15 10:36:14;;;;;;;6.03;5.53;;;;;;;2.97;82.61;94367.22;4359800;32;20296;-52
2022/12/15 10:38:46;;;;;;;7.00;6.27;;;;;;;3.01;82.43;94363.03;4324317;32;20294;-52
2022/12/15 10:41:27;;;;;;;6.13;5.90;;;;;;;3.30;82.08;94361.31;4351936;32;20405;-56
2022/12/15 10:43:54;;;;;;;8.87;7.80;;;;;;;3.55;80.76;94362.19;4357310;32;20289;-56
2022/12/15 10:46:28;;;;;;;6.53;6.03;;;;;;;3.09;81.38;94371.13;4353603;32;20321;-55
2022/12/15 10:49:21;;;;;;;6.87;6.43;;;;;;;3.39;81.24;94356.25;4341097;32;20288;-53
2022/12/15 10:52:03;;;;;;;5.63;5.13;;;;;;;3.50;80.68;94354.38;4359028;32;20352;-56
2022/12/15 10:54:46;;;;;;;5.30;4.70;;;;;;;3.35;80.43;94347.38;4328708;32;20277;-55
2022/12/15 10:57:32;;;;;;;7.93;7.33;;;;;;;3.14;81.24;94346.72;4368369;32;20356;-55
2022/12/15 11:00:26;;;;;;;6.73;6.30;;;;;;;2.92;82.35;94330.59;4347304;32;20306;-57
2022/12/15 11:02:55;;;;;;;8.97;8.30;;;;;;;3.08;82.87;94319.00;4348067;32;20289;-58
2022/12/15 11:05:22;;;;;;;8.10;7.40;;;;;;;2.68;84.48;94306.87;4372046;32;20265;-54
2022/12/15 11:08:16;;;;;;;8.10;6.37;;;;;;;2.66;84.31;94309.78;4348433;32;20375;-53
2022/12/15 11:13:41;;;;;;;7.53;7.10;;;;;;;2.82;83.70;94333.25;4352130;32;20299;-55
2022/12/15 11:16:15;;;;;;;8.70;7.60;;;;;;;2.81;83.54;94342.16;4370277;32;20288;-56
2022/12/15 11:19:01;;;;;;;7.23;6.63;;;;;;;2.57;84.35;94334.94;4365541;32;20398;-55
2022/12/15 11:21:38;;;;;;;6.37;5.87;;;;;;;2.57;84.04;94326.28;4361861;32;20272;-54
2022/12/15 11:24:44;;;;;;;6.83;6.33;;;;;;;2.72;84.49;94319.16;4368241;32;20314;-60
2022/12/15 11:27:33;;;;;;;5.10;4.90;;;;;;;2.51;84.71;94312.44;4381878;32;20287;-51
2022/12/15 11:30:12;;;;;;;7.47;6.97;;;;;;;2.92;84.41;94302.56;4351148;32;20273;-56
2022/12/15 11:32:48;;;;;;;7.53;6.97;;;;;;;2.79;84.17;94312.84;4369369;32;20314;-55
2022/12/15 11:35:35;;;;;;;6.13;5.73;;;;;;;2.53;85.48;94299.87;4335102;32;20281;-55
2022/12/15 11:38:46;;;;;;;5.30;5.00;;;;;;;2.40;85.69;94298.63;4317263;32;20283;-52
2022/12/15 11:41:27;;;;;;;7.83;7.30;;;;;;;2.17;86.48;94295.81;4362630;32;20363;-51
2022/12/15 11:44:16;;;;;;;4.53;4.37;;;;;;;2.32;86.71;94295.75;4349289;32;20271;-55
2022/12/15 11:47:15;;;;;;;7.87;7.20;;;;;;;2.03;86.87;94301.59;4356410;32;20368;-54
2022/12/15 11:50:19;;;;;;;7.33;5.90;;;;;;;1.86;87.99;94311.56;4371841;32;20268;-56
2022/12/15 11:52:58;;;;;;;5.70;5.27;;;;;;;1.91;88.01;94314.16;4352962;32;20317;-55
2022/12/15 11:55:43;;;;;;;6.37;5.87;;;;;;;2.09;87.54;94310.19;4387351;32;20271;-52
2022/12/15 11:58:49;;;;;;;9.17;8.43;;;;;;;2.41;87.14;94302.78;4350713;32;20276;-55
2022/12/15 12:01:47;;;;;;;8.87;8.10;;;;;;;2.65;86.20;94313.44;4359430;32;20371;-54
2022/12/15 12:04:25;;;;;;;5.00;4.70;;;;;;;2.88;85.19;94306.78;4388156;32;20276;-50
2022/12/15 12:07:43;;;;;;;6.87;6.17;;;;;;;2.84;85.16;94313.63;4368385;32;20298;-53
2022/12/15 12:10:48;;;;;;;5.93;5.53;;;;;;;3.09;84.72;94307.47;4268082;33;20292;-54
2022/12/15 12:13:33;;;;;;;6.70;5.67;;;;;;;3.26;83.09;94297.38;4315150;33;20409;-53
2022/12/15 12:16:45;;;;;;;7.90;6.73;;;;;;;3.11;83.74;94287.03;4310144;33;20298;-54
2022/12/15 12:19:18;;;;;;;5.33;4.90;;;;;;;3.13;83.41;94277.03;4298827;32;20309;-54
2022/12/15 12:21:53;;;;;;;7.00;6.50;;;;;;;3.08;83.56;94263.97;4299390;33;20274;-55
2022/12/15 12:24:28;;;;;;;16.33;7.73;;;;;;;2.60;84.59;94253.25;4305026;33;20309;-53
2022/12/15 12:27:13;;;;;;;6.20;5.80;;;;;;;2.60;85.02;94249.84;4299393;33;20361;-57
2022/12/15 12:30:04;;;;;;;10.90;7.20;;;;;;;2.71;84.81;94235.62;4309094;33;20381;-52
2022/12/15 12:32:58;;;;;;;7.13;6.77;;;;;;;2.32;86.05;94238.19;4328920;32;20308;-54
2022/12/15 12:35:48;;;;;;;9.00;8.17;;;;;;;2.22;87.36;94230.41;4343319;32;20395;-55
2022/12/15 12:38:22;;;;;;;5.53;4.97;;;;;;;2.64;86.42;94220.25;4375932;32;20458;-55
2022/12/15 12:41:05;;;;;;;6.23;5.80;;;;;;;2.50;86.06;94226.31;4341572;32;20418;-54
2022/12/15 12:43:40;;;;;;;7.63;6.93;;;;;;;2.30;86.76;94220.16;4351675;32;20287;-54
2022/12/15 12:46:30;;;;;;;9.67;8.87;;;;;;;2.18;87.39;94229.38;4387342;32;20291;-55
2022/12/15 12:49:26;;;;;;;7.67;7.20;;;;;;;2.24;86.95;94223.06;4373503;32;20307;-56
2022/12/15 12:51:53;;;;;;;20.37;7.07;;;;;;;2.03;88.28;94228.38;4341027;32;20298;-51
2022/12/15 12:54:42;;;;;;;10.20;7.63;;;;;;;2.17;88.14;94223.34;4359292;32;20345;-52
2022/12/15 12:57:34;;;;;;;4.33;4.03;;;;;;;2.15;87.47;94229.91;4365747;32;20398;-54
2022/12/15 13:00:22;;;;;;;8.60;8.00;;;;;;;2.19;87.29;94223.09;4367619;32;20285;-55
2022/12/15 13:03:11;;;;;;;9.47;7.10;;;;;;;2.18;87.64;94231.97;4361952;32;20294;-53
2022/12/15 13:05:42;;;;;;;7.93;7.30;;;;;;;2.27;86.54;94233.00;4369702;32;20280;-56
2022/12/15 13:08:27;;;;;;;7.10;6.60;;;;;;;2.08;86.64;94238.81;4372248;32;20295;-55
2022/12/15 13:10:54;;;;;;;7.77;7.17;;;;;;;1.61;88.19;94241.03;4361177;32;20299;-55
2022/12/15 13:13:43;;;;;;;7.70;6.87;;;;;;;1.39;89.32;94238.69;4345913;32;20331;-54
2022/12/15 13:16:26;;;;;;;6.47;6.07;;;;;;;1.42;89.62;94247.84;4319879;32;20331;-55
2022/12/15 13:18:55;;;;;;;8.10;7.50;;;;;;;1.37;89.69;94252.03;4349656;32;20280;-57
2022/12/15 13:21:47;;;;;;;6.37;5.87;;;;;;;1.49;89.41;94248.34;4349069;32;20273;-54
2022/12/15 13:24:30;;;;;;;6.77;5.27;;;;;;;1.48;89.06;94257.22;4385789;32;20360;-56
2022/12/15 13:27:22;;;;;;;7.90;7.17;;;;;;;1.72;88.23;94253.81;4367537;32;20277;-56
2022/12/15 13:30:07;;;;;;;5.57;5.07;;;;;;;1.59;88.00;94253.56;4340118;32;20286;-55
2022/12/15 13:32:42;;;;;;;7.10;6.50;;;;;;;1.45;88.55;94236.88;4351412;32;20320;-55
2022/12/15 13:35:30;;;;;;;5.83;5.50;;;;;;;1.45;88.49;94219.38;4341986;32;20284;-54
2022/12/15 13:38:01;;;;;;;6.47;5.97;;;;;;;1.33;89.20;94203.16;4374491;32;20265;-55
2022/12/15 13:40:36;;;;;;;8.67;7.93;;;;;;;1.42;89.08;94206.81;4363793;32;20303;-53
2022/12/15 13:43:28;;;;;;;6.13;5.80;;;;;;;1.58;88.49;94212.81;4372236;32;20327;-56
2022/12/15 13:46:17;;;;;;;6.00;5.70;;;;;;;1.49;88.00;94203.91;4289989;32;20381;-59
2022/12/15 13:48:50;;;;;;;6.23;5.83;;;;;;;1.37;88.42;94206.81;4329428;32;20396;-59
2022/12/15 13:51:31;;;;;;;6.73;6.13;;;;;;;1.50;88.87;94202.88;4369293;32;20341;-60
2022/12/15 13:54:40;;;;;;;7.20;6.83;;;;;;;1.41;88.97;94205.25;4358851;32;20325;-59
2022/12/15 13:57:16;;;;;;;10.57;7.43;;;;;;;1.43;89.17;94203.16;4337209;32;20356;-56
2022/12/15 14:00:17;;;;;;;7.13;6.47;;;;;;;1.69;88.08;94206.50;4376377;32;20424;-55
2022/12/15 14:02:44;;;;;;;5.70;5.20;;;;;;;1.62;87.22;94219.06;4292213;33;20337;-57
2022/12/15 14:05:21;;;;;;;8.77;7.87;;;;;;;1.69;87.19;94215.13;4284351;33;20305;-53
2022/12/15 14:07:56;;;;;;;5.93;5.50;;;;;;;1.81;86.68;94209.63;4300706;33;20282;-55
2022/12/15 14:10:54;;;;;;;5.83;5.37;;;;;;;1.59;86.46;94212.53;4308937;33;20289;-63
2022/12/15 14:13:28;;;;;;;5.57;5.20;;;;;;;1.35;86.97;94211.53;4297357;33;20291;-40
2022/12/15 14:16:08;;;;;;;8.40;7.70;;;;;;;2.21;96.95;94207.91;4284379;33;20279;-43
2022/12/15 14:18:46;;;;;;;7.40;6.90;;;;;;;4.69;98.71;94186.50;4314321;32;20345;-42
2022/12/15 14:21:21;;;;;;;8.87;8.17;;;;;;;3.55;78.34;94199.63;4340209;32;20399;-56
2022/12/15 14:23:48;;;;;;;8.77;7.97;;;;;;;3.94;78.66;94194.28;4363264;32;20280;-56
2022/12/15 14:26:15;;;;;;;7.37;6.67;;;;;;;3.46;77.53;94196.84;4357801;32;20434;-56
2022/12/15 14:28:45;;;;;;;7.53;6.93;;;;;;;3.14;78.35;94193.97;4345758;32;20277;-55
2022/12/15 14:31:30;;;;;;;8.43;7.73;;;;;;;2.28;81.91;94197.94;4365409;32;20380;-54
2022/12/15 14:34:28;;;;;;;7.67;7.17;;;;;;;1.94;84.26;94205.66;4326085;32;20273;-51
2022/12/15 14:36:56;;;;;;;7.80;7.27;;;;;;;1.46;86.92;94201.84;4357383;32;20344;-56
2022/12/15 14:39:43;;;;;;;8.73;7.93;;;;;;;1.46;87.26;94194.78;4365901;32;20304;-52
2022/12/15 14:42:20;;;;;;;5.27;4.90;;;;;;;1.33;88.20;94182.28;4339860;32;20294;-57
2022/12/15 14:44:47;;;;;;;6.77;6.20;;;;;;;1.51;88.00;94188.75;4354910;32;20292;-53